Time;durP1;ratioP1;P1;durP2;ratioP2;P2;SDS_P1;SDS_P2;PMS_P1;PMS_P2;Temp;Humidity;BMP_temperature;BMP_pressure;BME280_temperature;BME280_humidity;BME280_pressure;Samples;Min_cycle;Max_cycle;Signal;HPM_P1;HPM_P2
2022/01/17 00:00:48;;;;;;;15.70;2.90;;;5.90;99.90;;;;;;6212271;23;20268;-49
2022/01/17 00:03:13;;;;;;;11.50;2.70;;;5.90;99.90;;;;;;6212003;23;20151;-50
2022/01/17 00:05:39;;;;;;;19.10;3.03;;;5.90;99.90;;;;;;6212387;23;20143;-50
2022/01/17 00:08:05;;;;;;;12.03;2.43;;;5.90;99.90;;;;;;6212254;23;20597;-50
2022/01/17 00:10:30;;;;;;;16.37;2.80;;;5.90;85.40;;;;;;6212110;23;20612;-50
2022/01/17 00:12:58;;;;;;;21.37;4.17;;;5.90;99.90;;;;;;6212219;23;20444;-50
2022/01/17 00:15:42;;;;;;;23.43;3.57;;;6.00;1.00;;;;;;6212248;23;20237;-50
2022/01/17 00:20:46;;;;;;;11.53;2.27;;;6.00;1.00;;;;;;6221849;23;20373;-50
2022/01/17 00:23:15;;;;;;;7.90;2.30;;;6.00;99.90;;;;;;6212592;23;20808;-50
2022/01/17 00:25:41;;;;;;;16.30;2.43;;;6.10;1.00;;;;;;6212355;23;20402;-49
2022/01/17 00:28:07;;;;;;;22.60;2.70;;;6.10;1.00;;;;;;6212078;23;20377;-50
2022/01/17 00:30:32;;;;;;;16.27;2.83;;;6.10;1.00;;;;;;6212045;23;20178;-50
2022/01/17 00:32:58;;;;;;;23.47;3.10;;;6.10;99.90;;;;;;6211781;23;20153;-66
2022/01/17 00:35:24;;;;;;;17.83;2.37;;;6.10;1.00;;;;;;6212104;23;20162;-49
2022/01/17 00:37:51;;;;;;;11.60;2.50;;;6.10;99.90;;;;;;6211930;23;20606;-49
2022/01/17 00:40:17;;;;;;;19.27;3.00;;;6.10;1.00;;;;;;6212292;23;20381;-49
2022/01/17 00:42:43;;;;;;;17.43;2.43;;;6.20;1.00;;;;;;6212076;23;20370;-51
2022/01/17 00:45:12;;;;;;;17.37;2.80;;;6.20;99.90;;;;;;6211904;23;20585;-50
2022/01/17 00:47:38;;;;;;;23.67;5.60;;;6.20;1.00;;;;;;6184695;23;20162;-49
2022/01/17 00:50:04;;;;;;;17.03;2.77;;;6.20;99.90;;;;;;6211884;23;20433;-50
2022/01/17 00:52:30;;;;;;;12.43;2.53;;;6.20;1.00;;;;;;6211965;23;20147;-50
2022/01/17 00:54:56;;;;;;;17.97;2.90;;;6.20;1.00;;;;;;6211757;23;20750;-49
2022/01/17 00:57:21;;;;;;;18.40;2.73;;;6.20;99.90;;;;;;6212196;23;20150;-50
2022/01/17 00:59:47;;;;;;;21.00;2.87;;;6.20;36.00;;;;;;6211131;23;20210;-49
2022/01/17 01:02:12;;;;;;;20.93;3.50;;;6.20;99.90;;;;;;6211571;23;20165;-49
2022/01/17 01:04:38;;;;;;;11.87;2.20;;;6.30;1.00;;;;;;6211775;23;20647;-49
2022/01/17 01:07:04;;;;;;;24.63;2.73;;;6.30;99.90;;;;;;6211902;23;20146;-50
2022/01/17 01:09:34;;;;;;;23.67;3.13;;;6.30;1.00;;;;;;6209385;23;20196;-50
2022/01/17 01:12:00;;;;;;;19.33;3.40;;;6.30;1.00;;;;;;6211268;23;20571;-50
2022/01/17 01:14:26;;;;;;;14.60;3.20;;;6.40;99.90;;;;;;6211467;23;20368;-49
2022/01/17 01:16:53;;;;;;;14.83;2.57;;;6.40;3.00;;;;;;6211163;23;20157;-51
2022/01/17 01:19:27;;;;;;;16.60;2.40;;;6.40;99.90;;;;;;6211301;23;20142;-49
2022/01/17 01:27:42;;;;;;;20.70;3.33;;;6.40;99.90;;;;;;6211631;23;20393;-52
2022/01/17 01:30:27;;;;;;;32.07;3.37;;;6.40;99.90;;;;;;6186755;23;20957;-50
2022/01/17 01:32:56;;;;;;;19.60;3.07;;;6.40;1.00;;;;;;6211286;23;20528;-54
2022/01/17 01:35:25;;;;;;;19.23;2.63;;;6.50;99.90;;;;;;6211652;23;20373;-50
2022/01/17 01:37:50;;;;;;;31.13;3.33;;;6.40;99.90;;;;;;6211463;23;20393;-49
2022/01/17 01:40:18;;;;;;;17.17;2.60;;;6.40;99.90;;;;;;6211682;23;20373;-50
2022/01/17 01:42:46;;;;;;;15.53;2.87;;;6.40;99.90;;;;;;6211301;23;20162;-50
2022/01/17 01:45:13;;;;;;;13.47;2.50;;;6.40;99.90;;;;;;6211319;23;20380;-50
2022/01/17 01:47:40;;;;;;;21.47;3.00;;;6.40;99.90;;;;;;6211359;23;20370;-50
2022/01/17 01:50:10;;;;;;;15.03;2.50;;;6.40;99.90;;;;;;6211662;23;20483;-50
2022/01/17 01:52:37;;;;;;;15.63;3.40;;;6.40;99.90;;;;;;6185144;23;20416;-50
2022/01/17 01:55:03;;;;;;;22.33;3.30;;;6.40;99.90;;;;;;6211486;23;20856;-49
2022/01/17 01:57:28;;;;;;;13.33;3.10;;;6.40;99.90;;;;;;6211425;23;20377;-50
2022/01/17 01:59:54;;;;;;;22.90;3.70;;;6.40;99.90;;;;;;6213038;23;20440;-50
2022/01/17 02:02:20;;;;;;;19.67;3.93;;;6.50;99.90;;;;;;6213318;23;20151;-50
2022/01/17 02:04:46;;;;;;;25.57;4.67;;;6.40;99.90;;;;;;6213086;23;20480;-49
2022/01/17 02:07:11;;;;;;;21.23;3.17;;;6.40;99.90;;;;;;6213558;23;20154;-51
2022/01/17 02:09:37;;;;;;;15.60;2.83;;;6.50;99.90;;;;;;6213301;23;20177;-50
2022/01/17 02:12:03;;;;;;;17.83;3.30;;;6.50;99.90;;;;;;6212821;23;20154;-50
2022/01/17 02:14:29;;;;;;;33.80;4.40;;;6.50;99.90;;;;;;6212144;23;20361;-49
2022/01/17 02:16:54;;;;;;;15.73;2.30;;;6.50;99.90;;;;;;6213020;23;20559;-49
2022/01/17 02:19:24;;;;;;;24.30;3.77;;;6.50;99.90;;;;;;6213046;23;20142;-49
2022/01/17 02:21:50;;;;;;;19.10;2.77;;;6.60;99.90;;;;;;6213122;23;20146;-50
2022/01/17 02:24:18;;;;;;;13.37;3.17;;;6.60;99.90;;;;;;6213366;23;20855;-50
2022/01/17 02:26:45;;;;;;;15.23;2.67;;;6.50;99.90;;;;;;6213044;23;20157;-50
2022/01/17 02:29:11;;;;;;;25.23;3.63;;;6.50;99.90;;;;;;6212904;23;20475;-49
2022/01/17 02:31:38;;;;;;;27.30;3.50;;;6.50;99.90;;;;;;6213212;23;20907;-49
2022/01/17 02:34:03;;;;;;;19.07;2.90;;;6.50;99.90;;;;;;6212829;23;20739;-52
2022/01/17 02:36:30;;;;;;;34.43;3.50;;;6.50;99.90;;;;;;6212858;23;20420;-49
2022/01/17 02:38:56;;;;;;;16.50;2.90;;;6.60;99.90;;;;;;6212968;23;20174;-50
2022/01/17 02:41:21;;;;;;;14.27;2.57;;;6.50;99.90;;;;;;6212931;23;20374;-50
2022/01/17 02:43:47;;;;;;;23.17;2.93;;;6.50;99.90;;;;;;6213052;23;20178;-49
2022/01/17 02:48:40;;;;;;;16.47;3.00;;;6.50;99.90;;;;;;6223498;23;20374;-50
2022/01/17 02:51:07;;;;;;;14.67;2.87;;;6.60;99.90;;;;;;6213065;23;20388;-51
2022/01/17 02:53:33;;;;;;;23.10;3.40;;;6.60;99.90;;;;;;6212855;23;20392;-49
2022/01/17 02:56:01;;;;;;;17.63;3.03;;;6.60;99.90;;;;;;6211529;23;20385;-49
2022/01/17 02:58:32;;;;;;;15.33;2.70;;;6.60;99.90;;;;;;6213263;23;20843;-49
2022/01/17 03:00:58;;;;;;;18.37;3.20;;;6.60;99.90;;;;;;6212907;23;20480;-49
2022/01/17 03:03:26;;;;;;;16.07;3.20;;;6.60;99.90;;;;;;6212717;23;20809;-50
2022/01/17 03:05:52;;;;;;;16.27;2.50;;;6.60;99.90;;;;;;6212527;23;20388;-50
2022/01/17 03:08:20;;;;;;;17.43;2.03;;;6.60;99.90;;;;;;6213121;23;20384;-50
2022/01/17 03:10:53;;;;;;;15.10;2.47;;;6.70;99.90;;;;;;6212419;23;20417;-50
2022/01/17 03:13:21;;;;;;;21.90;3.20;;;6.70;99.90;;;;;;6212983;23;20725;-50
2022/01/17 03:15:55;;;;;;;14.13;3.40;;;6.70;99.90;;;;;;6212911;23;20767;-50
2022/01/17 03:18:22;;;;;;;18.23;3.97;;;6.70;99.90;;;;;;6212620;23;20382;-50
2022/01/17 03:20:47;;;;;;;22.73;2.90;;;6.70;99.90;;;;;;6212803;23;21027;-50
2022/01/17 03:23:13;;;;;;;27.13;4.50;;;6.70;99.90;;;;;;6186793;23;20417;-49
2022/01/17 03:25:39;;;;;;;21.83;3.50;;;6.70;99.90;;;;;;6212564;23;20154;-49
2022/01/17 03:28:04;;;;;;;13.83;3.20;;;6.70;99.90;;;;;;6212581;23;20196;-50
2022/01/17 03:30:33;;;;;;;13.40;3.17;;;6.70;99.90;;;;;;6212567;23;20183;-51
2022/01/17 03:32:59;;;;;;;16.13;3.03;;;6.70;99.90;;;;;;6185852;23;20558;-50
2022/01/17 03:35:25;;;;;;;25.17;3.60;;;6.70;99.90;;;;;;6211804;23;20464;-50
2022/01/17 03:37:51;;;;;;;19.53;3.60;;;6.70;99.90;;;;;;6212421;23;20792;-49
2022/01/17 03:40:16;;;;;;;19.90;2.87;;;6.70;99.90;;;;;;6212398;23;20158;-50
2022/01/17 03:42:42;;;;;;;19.20;2.90;;;6.70;99.90;;;;;;6212607;23;20142;-50
2022/01/17 03:45:08;;;;;;;18.00;3.10;;;6.70;99.90;;;;;;6212143;23;20208;-50
2022/01/17 03:47:35;;;;;;;19.63;2.77;;;6.70;99.90;;;;;;6212131;23;20158;-51
2022/01/17 03:50:03;;;;;;;14.93;2.70;;;6.80;99.90;;;;;;6212546;23;20413;-49
2022/01/17 03:52:28;;;;;;;21.53;3.33;;;6.80;99.90;;;;;;6212317;23;20372;-49
2022/01/17 03:54:54;;;;;;;19.67;3.20;;;6.80;99.90;;;;;;6212084;23;20382;-50
2022/01/17 03:57:19;;;;;;;15.03;2.73;;;6.80;99.90;;;;;;6212224;23;20441;-50
2022/01/17 03:59:45;;;;;;;19.47;3.33;;;6.80;99.90;;;;;;6212166;23;20252;-49
2022/01/17 04:02:10;;;;;;;20.83;3.03;;;6.80;1.00;;;;;;6212233;23;20761;-49
2022/01/17 04:04:36;;;;;;;31.33;4.40;;;6.70;99.90;;;;;;6212284;23;20161;-50
2022/01/17 04:07:01;;;;;;;16.47;2.80;;;6.80;99.90;;;;;;6212250;23;20483;-49
2022/01/17 04:09:27;;;;;;;21.27;3.23;;;6.80;99.90;;;;;;6212288;23;20181;-49
2022/01/17 04:11:52;;;;;;;23.13;3.30;;;6.80;1.00;;;;;;6212193;23;20156;-53
2022/01/17 04:14:18;;;;;;;14.17;3.50;;;6.80;99.90;;;;;;6212358;23;20154;-49
2022/01/17 04:16:44;;;;;;;21.63;3.23;;;6.80;99.90;;;;;;6212121;23;20201;-50
2022/01/17 04:19:10;;;;;;;19.93;3.20;;;6.80;99.90;;;;;;6211765;23;20586;-50
2022/01/17 04:21:36;;;;;;;26.50;3.87;;;6.80;99.90;;;;;;6212074;23;20147;-50
2022/01/17 04:24:02;;;;;;;20.43;3.70;;;6.80;99.90;;;;;;6212097;23;20820;-54
2022/01/17 04:26:28;;;;;;;15.80;2.50;;;6.80;1.00;;;;;;6211920;23;20159;-50
2022/01/17 04:28:54;;;;;;;15.27;2.90;;;6.80;1.00;;;;;;6212122;23;20444;-51
2022/01/17 04:31:19;;;;;;;14.23;3.00;;;6.80;99.90;;;;;;6211995;23;20171;-50
2022/01/17 04:33:45;;;;;;;21.93;3.90;;;6.90;99.90;;;;;;6211982;23;20624;-53
2022/01/17 04:36:10;;;;;;;16.83;4.60;;;6.90;99.90;;;;;;6211982;23;20216;-50
2022/01/17 04:38:36;;;;;;;27.27;3.10;;;6.90;1.00;;;;;;6211842;23;20222;-49
2022/01/17 04:41:14;;;;;;;21.50;3.87;;;6.90;99.90;;;;;;6211892;23;20173;-50
2022/01/17 04:46:07;;;;;;;20.00;2.83;;;6.90;99.90;;;;;;6221869;23;20458;-50
2022/01/17 04:48:34;;;;;;;19.93;2.53;;;6.90;99.90;;;;;;6211845;23;20370;-50
2022/01/17 04:51:00;;;;;;;19.03;3.10;;;7.00;99.90;;;;;;6212208;23;20381;-50
2022/01/17 04:53:27;;;;;;;21.27;3.73;;;6.90;99.90;;;;;;6211740;23;20382;-50
2022/01/17 04:55:52;;;;;;;16.53;3.43;;;6.90;99.90;;;;;;6211735;23;20142;-49
2022/01/17 04:58:18;;;;;;;12.90;2.73;;;7.00;99.90;;;;;;6212352;23;20416;-50
2022/01/17 05:00:47;;;;;;;28.33;3.57;;;6.90;99.90;;;;;;6211651;23;20491;-50
2022/01/17 05:03:22;;;;;;;21.00;3.50;;;6.90;99.90;;;;;;6211931;23;20179;-50
2022/01/17 05:05:48;;;;;;;21.20;3.40;;;6.90;99.90;;;;;;6212025;23;20383;-50
2022/01/17 05:08:15;;;;;;;18.77;3.23;;;6.90;99.90;;;;;;6211714;23;20453;-49
2022/01/17 05:10:43;;;;;;;17.70;3.40;;;6.90;99.90;;;;;;6211767;23;20182;-50
2022/01/17 05:13:10;;;;;;;18.23;3.00;;;7.00;99.90;;;;;;6211713;23;20704;-49
2022/01/17 05:15:43;;;;;;;20.90;2.83;;;7.00;99.90;;;;;;6211751;23;20468;-49
2022/01/17 05:20:38;;;;;;;21.30;3.77;;;7.10;99.90;;;;;;6222098;23;20374;-49
2022/01/17 05:23:04;;;;;;;17.60;3.37;;;7.10;99.90;;;;;;6211529;23;20392;-49
2022/01/17 05:25:30;;;;;;;19.60;3.90;;;7.10;99.90;;;;;;6210811;23;20692;-50
2022/01/17 05:27:55;;;;;;;22.80;3.17;;;7.10;99.90;;;;;;6212226;23;20154;-50
2022/01/17 05:30:23;;;;;;;23.60;6.63;;;7.10;99.90;;;;;;6211885;23;20193;-50
2022/01/17 05:32:50;;;;;;;17.63;3.43;;;7.10;99.90;;;;;;6211859;23;20153;-49
2022/01/17 05:35:16;;;;;;;21.87;3.60;;;7.10;99.90;;;;;;6214050;23;20401;-49
2022/01/17 05:37:42;;;;;;;25.77;3.70;;;7.20;99.90;;;;;;6213648;23;20378;-50
2022/01/17 05:40:09;;;;;;;24.60;3.77;;;7.20;99.90;;;;;;6213576;23;20688;-49
2022/01/17 05:42:35;;;;;;;21.33;3.80;;;7.20;99.90;;;;;;6213850;23;20376;-49
2022/01/17 05:45:01;;;;;;;20.50;3.83;;;7.20;99.90;;;;;;6213637;23;20724;-49
2022/01/17 05:47:27;;;;;;;34.80;3.90;;;7.20;99.90;;;;;;6213659;23;20147;-49
2022/01/17 05:49:52;;;;;;;24.53;4.70;;;7.20;99.90;;;;;;6213808;23;20420;-49
2022/01/17 05:52:18;;;;;;;19.47;5.13;;;7.20;23.50;;;;;;6213596;23;20181;-50
2022/01/17 05:54:44;;;;;;;18.73;3.27;;;7.20;98.20;;;;;;6186913;23;20158;-49
2022/01/17 05:57:10;;;;;;;32.43;4.57;;;7.20;99.90;;;;;;6213824;23;20138;-54
2022/01/17 05:59:36;;;;;;;20.03;4.27;;;7.20;1.00;;;;;;6213532;23;20748;-49
2022/01/17 06:02:02;;;;;;;16.23;3.13;;;7.20;99.90;;;;;;6213584;23;20459;-49
2022/01/17 06:04:28;;;;;;;23.07;4.03;;;7.30;99.90;;;;;;6213039;23;20221;-49
2022/01/17 06:06:53;;;;;;;30.70;4.50;;;7.20;1.00;;;;;;6213295;23;20468;-50
2022/01/17 06:09:19;;;;;;;29.10;4.70;;;7.20;78.70;;;;;;6213579;23;20496;-49
2022/01/17 06:11:45;;;;;;;19.13;3.20;;;7.20;99.90;;;;;;6213409;23;20154;-50
2022/01/17 06:14:15;;;;;;;21.87;4.33;;;7.30;99.90;;;;;;6213530;23;20151;-50
2022/01/17 06:16:41;;;;;;;19.30;4.00;;;7.30;99.90;;;;;;6213352;23;20185;-50
2022/01/17 06:19:06;;;;;;;34.83;4.60;;;7.30;99.90;;;;;;6213282;23;20381;-49
2022/01/17 06:21:32;;;;;;;21.57;4.27;;;7.30;99.90;;;;;;6213231;23;20186;-50
2022/01/17 06:24:00;;;;;;;23.10;3.83;;;7.40;1.00;;;;;;6213327;23;20147;-50
2022/01/17 06:26:26;;;;;;;26.70;4.17;;;7.40;1.00;;;;;;6213447;23;20154;-49
2022/01/17 06:28:51;;;;;;;27.67;3.70;;;7.40;99.90;;;;;;6213254;23;20453;-49
2022/01/17 06:31:17;;;;;;;24.43;4.93;;;7.40;99.90;;;;;;6186806;23;20209;-50
2022/01/17 06:33:42;;;;;;;21.10;5.00;;;7.40;99.90;;;;;;6213917;23;20974;-49
2022/01/17 06:36:08;;;;;;;23.00;4.10;;;7.40;99.90;;;;;;6213783;23;20162;-50
2022/01/17 06:38:34;;;;;;;33.57;3.90;;;7.40;99.90;;;;;;6213118;23;20143;-50
2022/01/17 06:40:59;;;;;;;38.17;4.83;;;7.30;99.90;;;;;;6213123;23;20162;-49
2022/01/17 06:43:25;;;;;;;17.73;3.87;;;7.30;99.90;;;;;;6213285;23;20155;-52
2022/01/17 06:45:50;;;;;;;31.43;4.47;;;7.30;45.00;;;;;;6185980;23;20246;-50
2022/01/17 06:48:16;;;;;;;22.90;4.07;;;7.30;99.90;;;;;;6213063;23;20204;-50
2022/01/17 06:50:41;;;;;;;23.97;4.97;;;7.40;99.90;;;;;;6212998;23;20178;-49
2022/01/17 06:53:07;;;;;;;27.63;4.57;;;7.30;99.90;;;;;;6213272;23;20151;-50
2022/01/17 06:55:32;;;;;;;12.70;3.17;;;7.40;99.90;;;;;;6213534;23;20150;-50
2022/01/17 06:57:58;;;;;;;27.80;3.60;;;7.30;99.90;;;;;;6186942;23;20172;-49
2022/01/17 07:00:23;;;;;;;30.83;4.97;;;7.30;99.90;;;;;;6213101;23;20241;-50
2022/01/17 07:02:50;;;;;;;25.90;4.63;;;7.30;99.90;;;;;;6212515;23;20527;-50
2022/01/17 07:05:16;;;;;;;32.03;4.37;;;7.40;99.90;;;;;;6213253;23;20146;-49
2022/01/17 07:07:41;;;;;;;22.40;3.80;;;7.40;99.90;;;;;;6212872;23;20429;-49
2022/01/17 07:10:07;;;;;;;20.67;3.53;;;7.40;99.90;;;;;;6213385;23;20183;-49
2022/01/17 07:12:36;;;;;;;26.63;3.77;;;7.40;99.90;;;;;;6212929;23;20233;-49
2022/01/17 07:15:03;;;;;;;23.20;3.90;;;7.40;99.90;;;;;;6212203;23;20362;-53
2022/01/17 07:17:28;;;;;;;28.80;4.63;;;7.40;1.00;;;;;;6212967;23;20382;-50
2022/01/17 07:19:54;;;;;;;33.03;3.90;;;7.40;1.00;;;;;;6212932;23;20372;-49
2022/01/17 07:22:19;;;;;;;38.83;5.90;;;7.40;99.90;;;;;;6213012;23;20205;-49
2022/01/17 07:24:47;;;;;;;31.37;4.47;;;7.40;1.00;;;;;;6213421;23;20237;-49
2022/01/17 07:27:13;;;;;;;32.00;5.30;;;7.40;99.90;;;;;;6212780;23;20154;-49
2022/01/17 07:29:40;;;;;;;44.93;5.83;;;7.40;1.00;;;;;;6186081;23;20430;-50
2022/01/17 07:32:06;;;;;;;23.70;3.60;;;7.40;99.90;;;;;;6185858;23;20476;-49
2022/01/17 07:34:32;;;;;;;34.93;4.73;;;7.40;99.90;;;;;;6212811;23;20369;-49
2022/01/17 07:36:59;;;;;;;28.03;4.63;;;7.40;99.90;;;;;;6212554;23;20465;-49
2022/01/17 07:39:25;;;;;;;21.67;4.47;;;7.40;99.90;;;;;;6212777;23;20147;-49
2022/01/17 07:41:51;;;;;;;21.27;4.07;;;7.40;99.90;;;;;;6212536;23;20401;-49
2022/01/17 07:44:20;;;;;;;33.20;4.27;;;7.50;99.90;;;;;;6212583;23;20693;-50
2022/01/17 07:46:58;;;;;;;26.10;4.13;;;7.50;99.90;;;;;;6212856;23;20151;-49
2022/01/17 07:49:25;;;;;;;24.10;3.53;;;7.50;99.90;;;;;;6212677;23;20880;-49
2022/01/17 07:51:58;;;;;;;18.70;3.50;;;7.60;1.00;;;;;;6213931;23;20358;-51
2022/01/17 07:54:25;;;;;;;27.77;3.53;;;7.50;1.00;;;;;;6212465;23;20394;-49
2022/01/17 07:56:51;;;;;;;31.93;3.90;;;7.50;1.00;;;;;;6211887;23;20377;-49
2022/01/17 07:59:16;;;;;;;23.60;3.90;;;7.50;1.00;;;;;;6212107;23;20449;-49
2022/01/17 08:01:42;;;;;;;37.63;4.23;;;7.60;1.00;;;;;;6212196;23;20585;-50
2022/01/17 08:04:09;;;;;;;23.40;3.73;;;7.60;1.00;;;;;;6212335;23;20600;-50
2022/01/17 08:06:39;;;;;;;26.90;3.90;;;7.60;1.00;;;;;;6212349;23;20605;-50
2022/01/17 08:09:12;;;;;;;21.50;3.77;;;7.50;1.00;;;;;;6212218;23;20421;-56
2022/01/17 08:11:38;;;;;;;26.07;5.40;;;7.60;16.00;;;;;;6211982;23;20388;-49
2022/01/17 08:14:04;;;;;;;24.23;4.40;;;7.50;34.10;;;;;;6212344;23;20453;-49
2022/01/17 08:16:29;;;;;;;22.70;3.63;;;7.50;99.90;;;;;;6212093;23;20154;-49
2022/01/17 08:18:55;;;;;;;21.97;4.33;;;7.50;99.90;;;;;;6211010;23;20147;-50
2022/01/17 08:21:21;;;;;;;31.60;6.10;;;7.50;99.90;;;;;;6209123;23;20149;-50
2022/01/17 08:23:47;;;;;;;32.47;5.60;;;7.40;99.90;;;;;;6211774;23;20150;-49
2022/01/17 08:26:12;;;;;;;33.10;4.47;;;7.50;99.90;;;;;;6211312;23;20373;-50
2022/01/17 08:28:38;;;;;;;36.67;6.10;;;7.50;99.90;;;;;;6212107;23;20150;-50
2022/01/17 08:31:04;;;;;;;25.87;4.57;;;7.50;99.90;;;;;;6211565;23;20174;-56
2022/01/17 08:33:29;;;;;;;49.40;5.30;;;7.50;97.40;;;;;;6212105;23;20226;-50
2022/01/17 08:35:55;;;;;;;44.57;6.00;;;7.50;32.60;;;;;;6212203;23;20169;-50
2022/01/17 08:38:20;;;;;;;27.80;5.07;;;7.60;1.00;;;;;;6212575;23;20450;-51
2022/01/17 08:40:46;;;;;;;30.83;5.10;;;7.60;1.00;;;;;;6186278;23;20244;-50
2022/01/17 08:43:12;;;;;;;36.73;5.03;;;7.60;1.00;;;;;;6212520;23;20150;-52
2022/01/17 08:45:38;;;;;;;33.83;5.40;;;7.60;1.00;;;;;;6211644;23;20665;-49
2022/01/17 08:48:04;;;;;;;36.53;6.03;;;7.60;1.00;;;;;;6211939;23;20596;-53
2022/01/17 08:50:30;;;;;;;37.63;6.33;;;7.70;99.90;;;;;;6211947;23;20174;-47
2022/01/17 08:52:56;;;;;;;24.53;4.13;;;7.60;1.00;;;;;;6211513;23;20370;-50
2022/01/17 08:55:22;;;;;;;23.40;3.47;;;7.60;99.90;;;;;;6211074;23;20380;-49
2022/01/17 08:57:48;;;;;;;28.53;3.97;;;7.60;1.00;;;;;;6212066;23;20425;-49
2022/01/17 09:00:17;;;;;;;26.13;3.93;;;7.60;9.20;;;;;;6211992;23;20206;-49
2022/01/17 09:02:42;;;;;;;34.97;5.03;;;7.50;54.30;;;;;;6211286;23;20374;-49
2022/01/17 09:05:08;;;;;;;28.40;4.47;;;7.50;92.90;;;;;;6211869;23;21183;-49
2022/01/17 09:07:34;;;;;;;31.37;4.80;;;7.50;99.90;;;;;;6211525;23;20229;-49
2022/01/17 09:10:00;;;;;;;31.23;5.30;;;7.50;99.90;;;;;;6211786;23;20795;-49
2022/01/17 09:12:25;;;;;;;40.33;6.67;;;7.60;81.70;;;;;;6211677;23;20154;-50
2022/01/17 09:14:51;;;;;;;27.87;6.30;;;7.70;11.30;;;;;;6211342;23;20168;-49
2022/01/17 09:17:16;;;;;;;30.93;5.33;;;7.80;1.00;;;;;;6211717;23;20189;-49
2022/01/17 09:19:43;;;;;;;38.03;6.40;;;7.80;1.00;;;;;;6211931;23;20637;-50
2022/01/17 09:22:09;;;;;;;32.37;5.70;;;7.70;1.00;;;;;;6211617;23;20576;-49
2022/01/17 09:24:38;;;;;;;35.17;5.20;;;7.70;1.00;;;;;;6211933;23;20452;-49
2022/01/17 09:27:04;;;;;;;27.20;5.30;;;7.60;1.00;;;;;;6211907;23;20452;-49
2022/01/17 09:29:31;;;;;;;31.07;4.60;;;7.60;1.00;;;;;;6212581;23;20432;-51
2022/01/17 09:31:57;;;;;;;38.27;4.90;;;7.70;1.00;;;;;;6211907;23;20377;-51
2022/01/17 09:34:23;;;;;;;28.07;4.97;;;7.70;1.00;;;;;;6211569;23;20382;-50
2022/01/17 09:36:48;;;;;;;30.40;5.27;;;7.60;1.00;;;;;;6211622;23;20366;-50
2022/01/17 09:39:15;;;;;;;28.10;4.67;;;7.60;91.20;;;;;;6212402;23;20412;-49
2022/01/17 09:41:41;;;;;;;32.17;5.00;;;7.60;1.00;;;;;;6212479;23;20143;-52
2022/01/17 09:44:09;;;;;;;28.17;4.83;;;7.60;1.00;;;;;;6211727;23;20392;-49
2022/01/17 09:46:39;;;;;;;24.83;4.07;;;7.60;99.90;;;;;;6212360;23;20370;-52
2022/01/17 09:49:23;;;;;;;32.20;5.37;;;7.60;99.90;;;;;;6210971;23;20448;-49
2022/01/17 09:54:24;;;;;;;27.03;3.90;;;7.60;99.90;;;;;;6221827;23;20382;-55
2022/01/17 09:56:52;;;;;;;21.17;3.27;;;7.60;1.00;;;;;;6210920;23;20366;-49
2022/01/17 09:59:18;;;;;;;19.93;3.50;;;7.60;1.00;;;;;;6211654;23;20465;-50
2022/01/17 10:01:44;;;;;;;17.23;3.60;;;7.60;1.00;;;;;;6211585;23;20795;-50
2022/01/17 10:04:10;;;;;;;15.67;3.87;;;7.60;65.10;;;;;;6211346;23;20157;-50
2022/01/17 10:06:40;;;;;;;12.37;3.40;;;7.60;99.90;;;;;;6184664;23;20173;-49
2022/01/17 10:09:21;;;;;;;13.03;1.90;;;7.60;99.90;;;;;;6211602;23;20178;-49
2022/01/17 10:12:02;;;;;;;12.37;2.20;;;7.70;99.90;;;;;;6211833;23;20746;-50
2022/01/17 10:14:31;;;;;;;16.20;2.07;;;7.60;1.00;;;;;;6211162;23;20350;-50
2022/01/17 10:16:56;;;;;;;13.33;2.60;;;7.70;99.90;;;;;;6211446;23;20451;-51
2022/01/17 10:19:25;;;;;;;12.17;2.13;;;7.70;99.90;;;;;;6212490;23;20374;-50
2022/01/17 10:21:55;;;;;;;16.60;2.47;;;7.80;99.90;;;;;;6213245;23;20566;-50
2022/01/17 10:34:54;;;;;;;13.53;1.87;;;8.40;99.90;;;;;;6213857;23;20412;-50
2022/01/17 10:37:22;;;;;;;13.73;2.27;;;8.50;99.90;;;;;;6212703;23;21056;-50
2022/01/17 10:40:04;;;;;;;6.13;1.80;;;8.50;99.90;;;;;;6212501;23;20855;-50
2022/01/17 10:42:39;;;;;;;11.00;2.73;;;8.30;99.90;;;;;;6213308;23;20665;-50
2022/01/17 10:45:15;;;;;;;9.00;2.47;;;8.20;1.00;;;;;;6213254;23;20366;-50
2022/01/17 10:47:43;;;;;;;15.80;2.40;;;8.00;1.00;;;;;;6212809;23;20370;-53
2022/01/17 10:50:24;;;;;;;18.47;3.00;;;7.90;1.00;;;;;;6213410;23;20414;-50
2022/01/17 10:52:52;;;;;;;8.13;2.53;;;7.80;99.90;;;;;;6213148;23;20369;-50
2022/01/17 10:55:30;;;;;;;11.63;2.27;;;7.80;1.00;;;;;;6213068;23;20388;-50
2022/01/17 10:58:02;;;;;;;11.57;2.13;;;7.70;1.00;;;;;;6212934;23;20389;-50
2022/01/17 11:00:30;;;;;;;17.23;2.33;;;7.70;1.00;;;;;;6212801;23;20469;-50
2022/01/17 11:02:59;;;;;;;10.87;2.10;;;7.80;1.00;;;;;;6212413;23;20827;-50
2022/01/17 11:05:28;;;;;;;10.33;2.53;;;8.00;1.00;;;;;;6213011;23;20756;-51
2022/01/17 11:07:56;;;;;;;15.40;3.40;;;8.20;1.00;;;;;;6212736;23;20408;-53
2022/01/17 11:10:22;;;;;;;17.20;2.93;;;8.00;1.00;;;;;;6212937;23;20511;-50
2022/01/17 11:12:50;;;;;;;14.83;2.73;;;7.60;1.00;;;;;;6213029;23;20370;-50
2022/01/17 11:15:16;;;;;;;11.67;2.07;;;7.30;1.00;;;;;;6213154;23;20405;-55
2022/01/17 11:17:51;;;;;;;13.50;2.40;;;7.00;1.00;;;;;;6212320;23;20377;-50
2022/01/17 11:20:20;;;;;;;12.00;2.20;;;6.80;10.70;;;;;;6213044;23;20456;-49
2022/01/17 11:22:48;;;;;;;16.20;2.40;;;6.70;99.90;;;;;;6212727;23;20507;-49
2022/01/17 11:25:28;;;;;;;16.93;2.57;;;6.50;99.90;;;;;;6213095;23;20461;-49
2022/01/17 11:27:54;;;;;;;16.40;2.70;;;6.40;1.00;;;;;;6212845;23;20381;-49
2022/01/17 11:30:21;;;;;;;5.87;2.00;;;6.40;1.00;;;;;;6212176;23;20417;-50
2022/01/17 11:32:50;;;;;;;17.07;2.30;;;6.30;98.30;;;;;;6212233;23;20867;-49
2022/01/17 11:35:17;;;;;;;13.83;3.07;;;6.40;99.90;;;;;;6212794;23;20362;-50
2022/01/17 11:37:50;;;;;;;17.67;2.30;;;6.40;99.90;;;;;;6212277;23;20417;-50
2022/01/17 11:40:22;;;;;;;16.20;2.80;;;6.50;99.90;;;;;;6212495;23;20824;-49
2022/01/17 11:42:50;;;;;;;15.95;2.50;;;6.50;1.00;;;;;;6212232;23;20410;-50
2022/01/17 11:45:21;;;;;;;18.73;3.00;;;6.50;99.90;;;;;;6212592;23;20158;-56
2022/01/17 11:47:52;;;;;;;22.00;4.40;;;6.50;99.90;;;;;;6212054;23;20670;-50
2022/01/17 11:50:34;;;;;;;19.00;3.80;;;6.50;1.00;;;;;;6212055;23;20512;-50
2022/01/17 11:53:19;;;;;;;20.10;3.33;;;6.60;99.90;;;;;;6212285;23;20456;-50
2022/01/17 11:55:48;;;;;;;14.13;3.07;;;6.70;1.00;;;;;;6212467;23;20440;-50
2022/01/17 11:58:29;;;;;;;21.13;3.60;;;6.80;1.00;;;;;;6212523;23;20400;-50
2022/01/17 12:00:58;;;;;;;16.93;3.20;;;7.00;99.90;;;;;;6212284;23;20445;-50
2022/01/17 12:03:27;;;;;;;15.60;3.37;;;7.00;99.90;;;;;;6212406;23;20472;-50
2022/01/17 12:06:16;;;;;;;23.83;3.70;;;7.00;1.00;;;;;;6212529;23;20378;-50
2022/01/17 12:08:41;;;;;;;18.70;4.23;;;7.00;1.00;;;;;;6212120;23;20532;-50
2022/01/17 12:11:07;;;;;;;29.60;3.67;;;7.00;1.00;;;;;;6212667;23;20449;-50
2022/01/17 12:13:43;;;;;;;22.40;3.53;;;7.00;1.00;;;;;;6211443;23;20147;-50
2022/01/17 12:16:30;;;;;;;23.20;3.97;;;6.90;99.90;;;;;;6185599;23;20385;-50
2022/01/17 12:19:03;;;;;;;27.57;3.60;;;7.00;99.90;;;;;;6212131;23;20362;-50
2022/01/17 12:21:32;;;;;;;27.63;4.23;;;7.20;99.90;;;;;;6212225;23;20426;-50
2022/01/17 12:24:37;;;;;;;24.80;3.60;;;7.40;1.00;;;;;;6212099;23;20381;-50
2022/01/17 12:27:10;;;;;;;26.00;3.50;;;7.40;1.00;;;;;;6090546;23;20396;-50
2022/01/17 12:29:41;;;;;;;35.63;4.77;;;7.30;1.00;;;;;;6196173;23;20429;-49
2022/01/17 12:32:20;;;;;;;27.90;4.33;;;7.40;92.90;;;;;;6213320;23;21160;-50
2022/01/17 12:34:46;;;;;;;21.33;4.70;;;7.60;1.00;;;;;;6212092;23;20449;-50
2022/01/17 12:37:42;;;;;;;22.80;4.23;;;8.20;1.00;;;;;;6212067;23;20369;-49
2022/01/17 12:40:13;;;;;;;23.43;3.83;;;8.30;99.90;;;;;;6212217;23;20153;-50
2022/01/17 12:42:49;;;;;;;22.43;4.37;;;8.40;99.90;;;;;;6185129;23;20398;-50
2022/01/17 12:45:44;;;;;;;23.53;4.70;;;8.80;1.00;;;;;;6211729;23;20839;-50
2022/01/17 12:48:13;;;;;;;18.60;3.90;;;8.90;99.90;;;;;;6209230;23;20989;-50
2022/01/17 12:50:43;;;;;;;23.87;4.83;;;8.60;1.00;;;;;;6211966;23;20881;-50
2022/01/17 12:53:10;;;;;;;23.83;4.53;;;8.20;99.90;;;;;;6211615;23;20473;-49
2022/01/17 12:55:39;;;;;;;29.77;4.83;;;7.80;24.20;;;;;;6212112;23;20414;-49
2022/01/17 12:58:19;;;;;;;32.97;5.37;;;7.50;99.90;;;;;;6211878;23;20386;-50
2022/01/17 13:00:57;;;;;;;22.33;4.30;;;7.30;99.90;;;;;;6211698;23;20444;-50
2022/01/17 13:03:25;;;;;;;31.53;4.93;;;7.20;1.00;;;;;;6211426;23;20931;-62
2022/01/17 13:05:52;;;;;;;28.77;5.17;;;7.10;99.90;;;;;;6212072;23;20377;-50
2022/01/17 13:08:18;;;;;;;21.20;4.20;;;7.00;99.90;;;;;;6211930;23;20816;-51
2022/01/17 13:10:44;;;;;;;25.83;5.03;;;6.90;99.90;;;;;;6211937;23;20428;-50
2022/01/17 13:13:15;;;;;;;21.93;7.00;;;6.90;1.00;;;;;;6212116;23;20460;-50
2022/01/17 13:16:03;;;;;;;26.37;4.37;;;6.90;99.90;;;;;;6211899;23;20231;-50
2022/01/17 13:18:30;;;;;;;35.03;4.27;;;6.80;1.00;;;;;;6211971;23;20478;-50
2022/01/17 13:20:57;;;;;;;37.50;4.50;;;6.70;99.90;;;;;;6211656;23;20393;-50
2022/01/17 13:23:31;;;;;;;26.53;4.23;;;6.70;1.00;;;;;;6212146;23;20424;-50